Dai15hakuryomaru — JD2439 — position and weather

sailwx.info

Track history (hours):
 
Tides and Currents Weather Stations Pressure Air Temp Water Temp Dewpoint Dewpoint Depression Visibility Wind Speed Wind Dir Waves Ship Positions

Dai15hakuryomaru

Last reported at 2014-Nov-26 08:33 UTC. Time now 2014-Nov-26 15:05 UTC.
Position N 34°07' E 135°08'.

Length 80 m; draft 5.4 m.

Type: Tanker. MMSI: 431000243.

Date/timePositionNaut miles runAvg speedWind from/ knotsBaromVisibWave heightAir tempDewpointWater temp
2014-Nov-26 08:33N 34°07' E 135°08'0 0.0
2014-Nov-26 07:33N 34°07' E 135°08'0 0.0
2014-Nov-26 06:31N 34°07' E 135°08'0 0.0
2014-Nov-26 04:28N 34°07' E 135°08'0 0.0
2014-Nov-26 03:33N 34°07' E 135°08'0 0.0
2014-Nov-26 02:33N 34°07' E 135°08'0 0.0
2014-Nov-26 01:34N 34°07' E 135°08'238 5.8
2014-Nov-24 08:33N 35°17' E 139°44'9 8.7
2014-Nov-24 07:33N 35°24' E 139°38'0 0.0
2014-Nov-24 06:33N 35°24' E 139°38'0 0.0
2014-Nov-24 05:33N 35°24' E 139°38'0 0.0
2014-Nov-24 04:33N 35°24' E 139°38'0 0.0
2014-Nov-24 03:33N 35°24' E 139°38'2 1.8
2014-Nov-24 02:33N 35°23' E 139°40'8 8.3
2014-Nov-24 01:34N 35°29' E 139°48'2 0.0
2014-Nov-22 06:16N 35°30' E 139°46'1 1.2
2014-Nov-22 05:33N 35°30' E 139°45'0 0.0
2014-Nov-22 04:33N 35°30' E 139°45'2 2.0
2014-Nov-22 03:33N 35°30' E 139°48'2 1.5
2014-Nov-22 02:32N 35°29' E 139°49'0 0.0
2014-Nov-22 01:22N 35°29' E 139°49'1 0.8
2014-Nov-22 00:33N 35°28' E 139°49'1211.1
2014-Nov-21 23:29N 35°17' E 139°46'1211.6
2014-Nov-21 22:25N 35°05' E 139°44'10 0.3
2014-Nov-20 09:06N 35°14' E 139°46'713.2
2014-Nov-20 08:33N 35°21' E 139°42'11 1.9
2014-Nov-20 02:33N 35°29' E 139°52'7 4.9
2014-Nov-20 01:11N 35°22' E 139°52'0 0.0
2014-Nov-20 00:14N 35°22' E 139°52'3 0.4
2014-Nov-19 18:16N 35°24' E 139°50'0 0.0
2014-Nov-19 17:33N 35°24' E 139°50'0 0.0
2014-Nov-19 16:33N 35°24' E 139°50'9 8.1
2014-Nov-19 15:27N 35°16' E 139°47'  
2014-Nov-17 05:30N 35°17' E 139°45'1010.5
2014-Nov-17 04:33N 35°27' E 139°46'  
Track history (hours):
 
Tides and Currents Weather Stations Pressure Air Temp Water Temp Dewpoint Dewpoint Depression Visibility Wind Speed Wind Dir Waves Ship Positions

Dai15hakuryomaru

Last reported at 2014-Nov-26 08:33 UTC. Time now 2014-Nov-26 15:05 UTC.
Position N 34°07' E 135°08'.

Length 80 m; draft 5.4 m.

Type: Tanker. MMSI: 431000243.

Date/timePositionNaut miles runAvg speedWind from/ knotsBaromVisibWave heightAir tempDewpointWater temp
2014-Nov-26 08:33N 34°07' E 135°08'0 0.0
2014-Nov-26 07:33N 34°07' E 135°08'0 0.0
2014-Nov-26 06:31N 34°07' E 135°08'0 0.0
2014-Nov-26 04:28N 34°07' E 135°08'0 0.0
2014-Nov-26 03:33N 34°07' E 135°08'0 0.0
2014-Nov-26 02:33N 34°07' E 135°08'0 0.0
2014-Nov-26 01:34N 34°07' E 135°08'238 5.8
2014-Nov-24 08:33N 35°17' E 139°44'9 8.7
2014-Nov-24 07:33N 35°24' E 139°38'0 0.0
2014-Nov-24 06:33N 35°24' E 139°38'0 0.0
2014-Nov-24 05:33N 35°24' E 139°38'0 0.0
2014-Nov-24 04:33N 35°24' E 139°38'0 0.0
2014-Nov-24 03:33N 35°24' E 139°38'2 1.8
2014-Nov-24 02:33N 35°23' E 139°40'8 8.3
2014-Nov-24 01:34N 35°29' E 139°48'2 0.0
2014-Nov-22 06:16N 35°30' E 139°46'1 1.2
2014-Nov-22 05:33N 35°30' E 139°45'0 0.0
2014-Nov-22 04:33N 35°30' E 139°45'2 2.0
2014-Nov-22 03:33N 35°30' E 139°48'2 1.5
2014-Nov-22 02:32N 35°29' E 139°49'0 0.0
2014-Nov-22 01:22N 35°29' E 139°49'1 0.8
2014-Nov-22 00:33N 35°28' E 139°49'1211.1
2014-Nov-21 23:29N 35°17' E 139°46'1211.6
2014-Nov-21 22:25N 35°05' E 139°44'10 0.3
2014-Nov-20 09:06N 35°14' E 139°46'713.2
2014-Nov-20 08:33N 35°21' E 139°42'11 1.9
2014-Nov-20 02:33N 35°29' E 139°52'7 4.9
2014-Nov-20 01:11N 35°22' E 139°52'0 0.0
2014-Nov-20 00:14N 35°22' E 139°52'3 0.4
2014-Nov-19 18:16N 35°24' E 139°50'0 0.0
2014-Nov-19 17:33N 35°24' E 139°50'0 0.0
2014-Nov-19 16:33N 35°24' E 139°50'9 8.1
2014-Nov-19 15:27N 35°16' E 139°47'  
2014-Nov-17 05:30N 35°17' E 139°45'1010.5
2014-Nov-17 04:33N 35°27' E 139°46'  

Dump ship's entire track history